createdAt,value
2018-04-13T00:01:12.639Z,12.20
2018-04-13T00:04:22.019Z,12.00
2018-04-13T00:07:31.466Z,12.00
2018-04-13T00:10:41.683Z,11.90
2018-04-13T00:13:52.032Z,11.80
2018-04-13T00:17:03.890Z,11.90
2018-04-13T00:20:15.134Z,11.90
2018-04-13T00:23:24.559Z,11.60
2018-04-13T00:26:34.483Z,11.90
2018-04-13T00:29:44.721Z,11.90
2018-04-13T00:32:54.927Z,11.80
2018-04-13T00:36:04.909Z,11.80
2018-04-13T00:39:15.045Z,11.80
2018-04-13T00:42:25.352Z,11.60
2018-04-13T00:45:34.774Z,11.60
2018-04-13T00:48:44.324Z,11.50
2018-04-13T00:51:53.843Z,11.50
2018-04-13T00:55:03.263Z,11.50
2018-04-13T00:58:12.745Z,11.40
2018-04-13T01:01:22.159Z,11.50
2018-04-13T01:04:31.719Z,11.40
2018-04-13T01:07:41.855Z,11.30
2018-04-13T01:10:51.277Z,11.40
2018-04-13T01:14:01.635Z,11.30
2018-04-13T01:17:11.627Z,11.40
2018-04-13T01:20:22.070Z,11.30
2018-04-13T01:23:31.792Z,11.20
2018-04-13T01:26:45.269Z,11.20
2018-04-13T01:29:54.527Z,11.00
2018-04-13T01:33:06.711Z,11.20
2018-04-13T01:36:16.443Z,11.00
2018-04-13T01:39:27.095Z,11.00
2018-04-13T01:42:36.539Z,11.00
2018-04-13T01:45:46.467Z,11.00
2018-04-13T01:48:56.651Z,10.70
2018-04-13T01:52:06.003Z,10.60
2018-04-13T01:55:15.408Z,10.80
2018-04-13T01:58:25.871Z,10.80
2018-04-13T02:01:36.288Z,10.70
2018-04-13T02:04:49.616Z,10.70
2018-04-13T02:07:59.054Z,10.60
2018-04-13T02:11:09.582Z,10.50
2018-04-13T02:14:19.158Z,10.70
2018-04-13T02:17:29.549Z,10.30
2018-04-13T02:20:39.118Z,10.20
2018-04-13T02:23:50.351Z,10.20
2018-04-13T02:26:59.807Z,10.00
2018-04-13T02:30:09.309Z,10.00
2018-04-13T02:33:23.411Z,9.90
2018-04-13T02:36:32.831Z,9.80
2018-04-13T02:39:42.860Z,9.90
2018-04-13T02:42:53.145Z,9.80
2018-04-13T02:46:03.412Z,9.70
2018-04-13T02:49:12.878Z,9.70
2018-04-13T02:52:22.164Z,9.70
2018-04-13T02:55:31.736Z,9.70
2018-04-13T02:58:41.592Z,9.60
2018-04-13T03:01:51.846Z,9.60
2018-04-13T03:05:01.341Z,9.40
2018-04-13T03:08:11.539Z,9.40
2018-04-13T03:11:21.803Z,9.40
2018-04-13T03:14:31.251Z,9.60
2018-04-13T03:17:41.160Z,10.10
2018-04-13T03:20:50.702Z,9.60
2018-04-13T03:24:00.194Z,9.60
2018-04-13T03:27:09.683Z,9.10
2018-04-13T03:30:19.058Z,9.40
2018-04-13T03:33:28.950Z,9.30
2018-04-13T03:36:38.415Z,9.50
2018-04-13T03:39:47.829Z,9.50
2018-04-13T03:42:58.374Z,9.40
2018-04-13T03:46:07.896Z,9.40
2018-04-13T03:49:18.181Z,9.30
2018-04-13T03:52:27.606Z,9.00
2018-04-13T03:55:37.751Z,9.30
2018-04-13T03:58:47.679Z,9.50
2018-04-13T04:01:57.771Z,9.60
2018-04-13T04:05:07.056Z,9.70
2018-04-13T04:08:17.725Z,9.60
2018-04-13T04:11:27.109Z,9.40
2018-04-13T04:14:37.432Z,9.50
2018-04-13T04:17:46.786Z,9.50
2018-04-13T04:21:14.091Z,9.40
2018-04-13T04:24:43.375Z,9.60
2018-04-13T04:27:52.836Z,9.40
2018-04-13T04:31:03.097Z,9.30
2018-04-13T04:34:13.019Z,9.30
2018-04-13T04:37:23.291Z,9.50
2018-04-13T04:40:33.139Z,9.60
2018-04-13T04:43:43.608Z,9.70
2018-04-13T04:46:53.088Z,9.70
2018-04-13T04:50:03.484Z,9.60
2018-04-13T04:53:13.778Z,9.60
2018-04-13T04:56:24.041Z,9.60
2018-04-13T04:59:37.171Z,9.40
2018-04-13T05:02:46.628Z,9.60
2018-04-13T05:05:56.456Z,9.60
2018-04-13T05:09:06.716Z,9.70
2018-04-13T05:12:16.563Z,9.70
2018-04-13T05:15:26.429Z,9.50
2018-04-13T05:18:35.911Z,9.60
2018-04-13T05:21:47.991Z,9.50
2018-04-13T05:24:57.368Z,9.50
2018-04-13T05:28:06.900Z,9.60
2018-04-13T05:31:16.352Z,9.60
2018-04-13T05:34:26.148Z,9.70
2018-04-13T05:37:36.447Z,10.10
2018-04-13T05:40:46.862Z,10.30
2018-04-13T05:43:57.663Z,10.40
2018-04-13T05:47:08.418Z,10.40
2018-04-13T05:50:17.992Z,10.30
2018-04-13T05:53:28.100Z,10.40
2018-04-13T05:56:37.590Z,10.50
2018-04-13T05:59:48.819Z,10.60
2018-04-13T06:02:59.087Z,10.70
2018-04-13T06:06:08.962Z,10.90
2018-04-13T06:09:19.184Z,11.00
2018-04-13T06:12:29.162Z,11.30
2018-04-13T06:15:39.275Z,11.40
2018-04-13T06:18:49.626Z,11.40
2018-04-13T06:21:59.874Z,11.60
2018-04-13T06:25:09.483Z,11.50
2018-04-13T06:28:19.679Z,11.70
2018-04-13T06:31:29.206Z,12.00
2018-04-13T06:34:38.440Z,12.00
2018-04-13T06:37:48.262Z,12.10
2018-04-13T06:41:03.399Z,12.20
2018-04-13T06:44:13.534Z,12.30
2018-04-13T06:47:23.360Z,12.30
2018-04-13T06:50:33.603Z,12.30
2018-04-13T06:53:43.022Z,12.20
2018-04-13T06:56:53.348Z,12.40
2018-04-13T07:00:03.212Z,12.60
2018-04-13T07:03:12.591Z,12.60
2018-04-13T07:06:22.047Z,12.70
2018-04-13T07:09:31.506Z,12.70
2018-04-13T07:12:41.732Z,13.10
2018-04-13T07:15:52.008Z,13.10
2018-04-13T07:19:01.432Z,13.30
2018-04-13T07:22:11.562Z,13.40
2018-04-13T07:25:21.832Z,13.30
2018-04-13T07:28:31.583Z,13.40
2018-04-13T07:31:41.783Z,13.40
2018-04-13T07:34:52.046Z,13.40
2018-04-13T07:38:02.247Z,13.40
2018-04-13T07:41:12.632Z,13.50
2018-04-13T07:44:22.760Z,13.70
2018-04-13T07:47:32.462Z,13.70
2018-04-13T07:50:42.100Z,13.50
2018-04-13T07:53:51.745Z,13.80
2018-04-13T07:57:02.395Z,13.90
2018-04-13T08:00:12.284Z,14.00
2018-04-13T08:03:22.147Z,14.10
2018-04-13T08:06:32.540Z,14.40
2018-04-13T08:09:42.850Z,14.40
2018-04-13T08:12:52.248Z,14.20
2018-04-13T08:16:01.699Z,14.50
2018-04-13T08:19:11.799Z,14.70
2018-04-13T08:22:21.399Z,14.80
2018-04-13T08:25:30.689Z,15.00
2018-04-13T08:28:40.072Z,15.20
2018-04-13T08:31:50.422Z,15.50
2018-04-13T08:34:59.951Z,15.60
2018-04-13T08:38:10.253Z,15.60
2018-04-13T08:41:20.121Z,15.50
2018-04-13T08:44:29.762Z,15.70
2018-04-13T08:47:39.203Z,15.50
2018-04-13T08:50:48.668Z,15.50
2018-04-13T08:53:59.059Z,15.50
2018-04-13T08:57:08.595Z,15.70
2018-04-13T09:00:17.995Z,15.50
2018-04-13T09:03:27.948Z,15.40
2018-04-13T09:06:37.237Z,15.10
2018-04-13T09:09:46.719Z,15.80
2018-04-13T09:12:56.560Z,15.60
2018-04-13T09:16:07.608Z,15.70
2018-04-13T09:19:17.146Z,15.80
2018-04-13T09:22:27.383Z,16.00
2018-04-13T09:25:37.156Z,16.00
2018-04-13T09:28:46.648Z,16.30
2018-04-13T09:31:56.132Z,16.50
2018-04-13T09:35:06.151Z,16.60
2018-04-13T09:38:15.647Z,16.70
2018-04-13T09:41:25.004Z,16.60
2018-04-13T09:44:35.681Z,16.70
2018-04-13T09:47:45.099Z,16.40
2018-04-13T09:50:54.555Z,16.80
2018-04-13T09:54:04.380Z,17.00
2018-04-13T09:57:13.872Z,17.20
2018-04-13T10:00:30.000Z,17.20
2018-04-13T10:03:45.242Z,17.30
2018-04-13T10:06:54.638Z,17.20
2018-04-13T10:10:04.909Z,17.20
2018-04-13T10:13:14.384Z,17.30
2018-04-13T10:16:23.846Z,17.40
2018-04-13T10:19:33.296Z,17.40
2018-04-13T10:22:43.472Z,17.30
2018-04-13T10:25:52.807Z,17.30
2018-04-13T10:29:02.790Z,17.40
2018-04-13T10:32:13.121Z,17.10
2018-04-13T10:35:22.467Z,17.20
2018-04-13T10:38:31.751Z,17.00
2018-04-13T10:41:41.996Z,17.40
2018-04-13T10:44:53.261Z,17.50
2018-04-13T10:48:03.550Z,17.30
2018-04-13T10:51:12.959Z,17.20
2018-04-13T10:54:22.853Z,17.00
2018-04-13T10:57:33.384Z,17.10
2018-04-13T11:00:43.343Z,17.70
2018-04-13T11:03:53.251Z,18.00
2018-04-13T11:07:03.048Z,17.90
2018-04-13T11:10:13.356Z,17.80
2018-04-13T11:13:22.843Z,18.30
2018-04-13T11:16:32.200Z,18.10
2018-04-13T11:19:41.642Z,17.70
2018-04-13T11:22:52.416Z,18.10
2018-04-13T11:26:02.593Z,18.00
2018-04-13T11:29:11.992Z,18.00
2018-04-13T11:32:21.511Z,17.70
2018-04-13T11:35:31.331Z,18.10
2018-04-13T11:38:40.981Z,18.10
2018-04-13T11:41:52.156Z,18.00
2018-04-13T11:45:01.686Z,17.90
2018-04-13T11:48:11.783Z,17.90
2018-04-13T11:51:21.395Z,17.20
2018-04-13T11:54:30.796Z,17.00
2018-04-13T11:57:40.263Z,17.20
2018-04-13T12:00:50.067Z,17.40
2018-04-13T12:03:59.544Z,16.80
2018-04-13T12:07:08.972Z,16.90
2018-04-13T12:10:18.451Z,16.30
2018-04-13T12:13:28.243Z,16.60
2018-04-13T12:16:37.689Z,16.40
2018-04-13T12:19:47.603Z,16.40
2018-04-13T12:22:57.028Z,16.30
2018-04-13T12:26:07.256Z,16.30
2018-04-13T12:29:16.927Z,16.20
2018-04-13T12:32:28.007Z,16.20
2018-04-13T12:35:38.243Z,16.20
2018-04-13T12:38:47.656Z,16.40
2018-04-13T12:41:57.122Z,16.50
2018-04-13T12:45:07.402Z,16.30
2018-04-13T12:48:17.667Z,16.20
2018-04-13T12:51:27.512Z,16.20
2018-04-13T12:54:37.810Z,16.20
2018-04-13T12:57:47.439Z,15.90
2018-04-13T13:00:57.675Z,15.90
2018-04-13T13:04:07.588Z,15.90
2018-04-13T13:07:17.999Z,15.90
2018-04-13T13:10:27.881Z,15.90
2018-04-13T13:13:38.091Z,16.20
2018-04-13T13:16:48.345Z,16.20
2018-04-13T13:19:58.215Z,16.30
2018-04-13T13:23:08.219Z,16.40
2018-04-13T13:26:18.107Z,16.30
2018-04-13T13:29:27.559Z,16.40
2018-04-13T13:32:37.119Z,16.10
2018-04-13T13:35:46.421Z,16.30
2018-04-13T13:38:55.901Z,16.10
2018-04-13T13:42:05.857Z,16.10
2018-04-13T13:45:15.189Z,16.40
2018-04-13T13:48:25.387Z,16.40
2018-04-13T13:51:34.920Z,16.40
2018-04-13T13:54:44.683Z,16.60
2018-04-13T13:57:54.150Z,16.30
2018-04-13T14:01:03.855Z,16.20
2018-04-13T14:04:13.270Z,16.30
2018-04-13T14:07:22.779Z,16.30
2018-04-13T14:10:32.948Z,16.20
2018-04-13T14:13:42.755Z,16.20
2018-04-13T14:16:52.831Z,16.10
2018-04-13T14:20:03.069Z,16.10
2018-04-13T14:23:12.547Z,16.20
2018-04-13T14:26:22.228Z,15.90
2018-04-13T14:29:32.438Z,16.00
2018-04-13T14:32:45.711Z,15.90
2018-04-13T14:35:56.329Z,16.00
2018-04-13T14:39:06.561Z,15.90
2018-04-13T14:42:15.944Z,15.70
2018-04-13T14:45:26.995Z,16.00
2018-04-13T14:48:37.296Z,16.00
2018-04-13T14:51:47.148Z,16.00
2018-04-13T14:54:57.388Z,15.90
2018-04-13T14:58:06.823Z,15.80
2018-04-13T15:01:17.280Z,16.00
2018-04-13T15:04:26.781Z,15.90
2018-04-13T15:07:37.056Z,15.70
2018-04-13T15:10:47.075Z,15.60
2018-04-13T15:13:57.120Z,15.60
2018-04-13T15:17:06.615Z,15.70
2018-04-13T15:20:16.013Z,15.50
2018-04-13T15:23:26.224Z,15.50
2018-04-13T15:26:36.509Z,15.50
2018-04-13T15:29:45.950Z,15.50
2018-04-13T15:32:56.231Z,15.50
2018-04-13T15:36:05.643Z,15.60
2018-04-13T15:39:15.204Z,15.50
2018-04-13T15:42:25.350Z,15.50
2018-04-13T15:45:35.483Z,15.50
2018-04-13T15:48:45.513Z,15.60
2018-04-13T15:51:54.959Z,15.60
2018-04-13T15:55:04.344Z,15.30
2018-04-13T15:58:15.433Z,15.40
2018-04-13T16:01:25.292Z,15.40
2018-04-13T16:04:35.351Z,15.20
2018-04-13T16:07:45.211Z,15.20
2018-04-13T16:10:55.079Z,15.30
2018-04-13T16:14:05.309Z,15.20
2018-04-13T16:17:15.572Z,15.20
2018-04-13T16:20:25.011Z,15.40
2018-04-13T16:23:34.852Z,15.20
2018-04-13T16:26:44.610Z,15.20
2018-04-13T16:29:54.611Z,15.20
2018-04-13T16:33:03.984Z,15.10
2018-04-13T16:36:13.825Z,15.10
2018-04-13T16:39:23.896Z,15.10
2018-04-13T16:42:34.001Z,15.10
2018-04-13T16:45:44.208Z,15.10
2018-04-13T16:48:53.628Z,14.90
2018-04-13T16:52:02.963Z,15.10
2018-04-13T16:55:12.727Z,14.90
2018-04-13T16:58:22.210Z,14.70
2018-04-13T17:01:32.433Z,14.80
2018-04-13T17:04:41.897Z,14.60
2018-04-13T17:07:51.340Z,14.70
2018-04-13T17:11:01.977Z,14.60
2018-04-13T17:14:13.234Z,14.70
2018-04-13T17:17:22.905Z,14.40
2018-04-13T17:20:32.790Z,14.50
2018-04-13T17:23:42.232Z,14.50
2018-04-13T17:26:52.448Z,14.40
2018-04-13T17:30:01.936Z,14.40
2018-04-13T17:33:12.176Z,14.40
2018-04-13T17:36:22.855Z,14.30
2018-04-13T17:39:32.272Z,14.20
2018-04-13T17:42:41.732Z,14.30
2018-04-13T17:45:51.188Z,14.20
2018-04-13T17:49:00.639Z,14.10
2018-04-13T17:52:11.820Z,14.10
2018-04-13T17:55:21.361Z,14.00
2018-04-13T17:58:31.585Z,14.10
2018-04-13T18:01:41.728Z,14.10
2018-04-13T18:04:56.585Z,14.10
2018-04-13T18:08:06.479Z,14.00
2018-04-13T18:11:16.758Z,14.10
2018-04-13T18:14:26.325Z,13.70
2018-04-13T18:17:35.810Z,14.20
2018-04-13T18:20:45.369Z,13.90
2018-04-13T18:23:54.681Z,13.80
2018-04-13T18:27:04.153Z,13.80
2018-04-13T18:30:13.968Z,13.90
2018-04-13T18:33:24.075Z,13.90
2018-04-13T18:36:34.343Z,14.00
2018-04-13T18:39:44.451Z,13.90
2018-04-13T18:42:54.627Z,14.00
2018-04-13T18:46:04.496Z,14.00
2018-04-13T18:49:14.140Z,13.80
2018-04-13T18:52:24.408Z,13.90
2018-04-13T18:55:34.317Z,13.90
2018-04-13T18:58:43.750Z,13.90
2018-04-13T19:01:53.935Z,13.90
2018-04-13T19:05:03.874Z,14.00
2018-04-13T19:08:14.484Z,13.90
2018-04-13T19:11:24.280Z,14.20
2018-04-13T19:14:34.590Z,13.90
2018-04-13T19:17:44.385Z,14.00
2018-04-13T19:20:54.935Z,13.80
2018-04-13T19:24:04.858Z,13.60
2018-04-13T19:27:15.820Z,13.80
2018-04-13T19:30:25.041Z,13.50
2018-04-13T19:33:35.314Z,13.80
2018-04-13T19:36:44.826Z,13.90
2018-04-13T19:39:55.545Z,13.80
2018-04-13T19:43:07.556Z,13.60
2018-04-13T19:46:17.679Z,13.60
2018-04-13T19:49:27.028Z,13.50
2018-04-13T19:52:36.431Z,13.60
2018-04-13T19:55:47.863Z,13.50
2018-04-13T19:58:59.008Z,13.50
2018-04-13T20:02:09.336Z,13.50
2018-04-13T20:05:19.424Z,13.50
2018-04-13T20:08:29.596Z,13.60
2018-04-13T20:11:39.076Z,13.30
2018-04-13T20:14:48.479Z,13.10
2018-04-13T20:17:58.373Z,13.20
2018-04-13T20:21:08.145Z,14.10
2018-04-13T20:24:18.035Z,12.90
2018-04-13T20:27:27.877Z,13.20
2018-04-13T20:30:38.505Z,12.90
2018-04-13T20:33:48.008Z,12.60
2018-04-13T20:36:58.337Z,11.60
2018-04-13T20:40:08.713Z,12.60
2018-04-13T20:43:17.967Z,12.40
2018-04-13T20:46:27.427Z,12.50
2018-04-13T20:49:37.224Z,12.50
2018-04-13T20:52:46.680Z,12.40
2018-04-13T20:55:56.924Z,12.40
2018-04-13T20:59:06.392Z,12.20
2018-04-13T21:02:16.872Z,12.40
2018-04-13T21:05:26.327Z,12.30
2018-04-13T21:08:36.528Z,12.40
2018-04-13T21:11:46.033Z,12.30
2018-04-13T21:14:56.043Z,11.90
2018-04-13T21:18:05.313Z,12.30
2018-04-13T21:21:14.762Z,12.20
2018-04-13T21:24:24.159Z,12.20
2018-04-13T21:27:33.452Z,12.20
2018-04-13T21:30:42.826Z,12.40
2018-04-13T21:33:52.726Z,12.20
2018-04-13T21:37:02.556Z,12.00
2018-04-13T21:40:11.868Z,12.00
2018-04-13T21:43:22.096Z,12.00
2018-04-13T21:46:32.812Z,12.00
2018-04-13T21:49:42.623Z,11.90
2018-04-13T21:52:52.936Z,12.00
2018-04-13T21:56:04.884Z,12.00
2018-04-13T21:59:14.452Z,12.00
2018-04-13T22:02:23.884Z,11.90
2018-04-13T22:05:34.970Z,11.90
2018-04-13T22:08:44.884Z,11.80
2018-04-13T22:11:55.313Z,11.70
2018-04-13T22:15:05.556Z,11.70
2018-04-13T22:18:15.376Z,11.90
2018-04-13T22:21:25.892Z,11.70
2018-04-13T22:24:35.553Z,11.60
2018-04-13T22:27:44.999Z,11.70
2018-04-13T22:30:55.516Z,11.60
2018-04-13T22:34:06.107Z,11.60
2018-04-13T22:37:15.949Z,11.60
2018-04-13T22:40:26.194Z,11.60
2018-04-13T22:43:37.436Z,11.40
2018-04-13T22:46:47.173Z,11.40
2018-04-13T22:49:57.392Z,11.20
2018-04-13T22:53:07.650Z,11.10
2018-04-13T22:56:17.479Z,11.00
2018-04-13T22:59:27.003Z,10.90
2018-04-13T23:02:37.204Z,10.80
2018-04-13T23:05:46.761Z,11.00
2018-04-13T23:08:57.392Z,10.90
2018-04-13T23:12:07.123Z,10.90
2018-04-13T23:15:16.650Z,10.80
2018-04-13T23:18:26.841Z,10.90
2018-04-13T23:21:37.060Z,10.90
2018-04-13T23:24:46.593Z,11.10
2018-04-13T23:27:55.990Z,10.70
2018-04-13T23:31:05.426Z,10.80
2018-04-13T23:34:14.866Z,11.00
2018-04-13T23:37:24.351Z,10.70
2018-04-13T23:40:33.965Z,10.50
2018-04-13T23:43:43.396Z,10.70
2018-04-13T23:46:52.923Z,10.50
2018-04-13T23:50:03.115Z,10.50
2018-04-13T23:53:13.356Z,10.60
2018-04-13T23:56:23.619Z,10.50
2018-04-13T23:59:33.184Z,10.60
